N636CX KBLH-KEED

Flight info

Callsign N636CX
Flight time 0h 32m
Altitude 7000
Route BLH V135 EED
Aircraft BE58/L-VD/C

Departure

Time 2026-04-27 01:15
Airport Blythe Airport (KBLH)

Arrival

Time 2026-04-27 01:47
Airport Needles Airport (KEED)
Time Latitude Longitude Altitude Speed Heading
2026-04-27 01:14 33.68280 -114.74468 4807 ft 157 kts 36°
2026-04-27 01:15 33.69240 -114.73979 5157 ft 150 kts
2026-04-27 01:15 33.70279 -114.73838 5447 ft 153 kts
2026-04-27 01:15 33.71362 -114.73696 5686 ft 159 kts
2026-04-27 01:15 33.72489 -114.73534 5939 ft 162 kts
2026-04-27 01:16 33.73605 -114.73361 6197 ft 163 kts
2026-04-27 01:16 33.74734 -114.73177 6460 ft 163 kts
2026-04-27 01:16 33.75852 -114.72988 6718 ft 163 kts
2026-04-27 01:16 33.76982 -114.72806 6980 ft 162 kts
2026-04-27 01:17 33.78109 -114.72702 7083 ft 172 kts
2026-04-27 01:17 33.79470 -114.72575 6292 ft 218 kts
2026-04-27 01:17 33.80996 -114.72403 6083 ft 217 kts
2026-04-27 01:17 33.82462 -114.72218 6229 ft 203 kts
2026-04-27 01:18 33.83831 -114.72040 6348 ft 195 kts
2026-04-27 01:18 33.85166 -114.71861 6450 ft 192 kts
2026-04-27 01:18 33.86491 -114.71679 6550 ft 190 kts
2026-04-27 01:18 33.87808 -114.71495 6643 ft 189 kts
2026-04-27 01:19 33.89112 -114.71310 6768 ft 187 kts
2026-04-27 01:19 33.90393 -114.71127 6883 ft 185 kts
2026-04-27 01:19 33.91685 -114.70943 6960 ft 187 kts
2026-04-27 01:19 33.93000 -114.70753 6948 ft 191 kts
2026-04-27 01:20 33.94323 -114.70558 6950 ft 194 kts
2026-04-27 01:20 33.95682 -114.70356 6952 ft 195 kts
2026-04-27 01:20 33.97024 -114.70155 6950 ft 196 kts
2026-04-27 01:20 33.98395 -114.69955 6947 ft 197 kts
2026-04-27 01:21 33.99756 -114.69754 6943 ft 198 kts
2026-04-27 01:21 34.01132 -114.69551 6946 ft 198 kts
2026-04-27 01:21 34.02511 -114.69350 6946 ft 199 kts
2026-04-27 01:21 34.03871 -114.69149 6947 ft 199 kts
2026-04-27 01:22 34.05266 -114.68941 6950 ft 199 kts
2026-04-27 01:22 34.06645 -114.68738 6952 ft 199 kts
2026-04-27 01:22 34.08012 -114.68532 6958 ft 199 kts
2026-04-27 01:22 34.09400 -114.68319 6957 ft 199 kts
2026-04-27 01:23 34.10766 -114.68106 6959 ft 199 kts
2026-04-27 01:23 34.12147 -114.67851 6960 ft 200 kts 11°
2026-04-27 01:23 34.13491 -114.67413 6964 ft 200 kts 13°
2026-04-27 01:23 34.14830 -114.66970 6966 ft 200 kts 12°
2026-04-27 01:24 34.16186 -114.66531 6968 ft 200 kts 12°
2026-04-27 01:24 34.17541 -114.66099 6969 ft 201 kts 12°
2026-04-27 01:24 34.18886 -114.65678 6970 ft 201 kts 12°
2026-04-27 01:24 34.20252 -114.65250 6974 ft 201 kts 12°
2026-04-27 01:25 34.21626 -114.64851 6974 ft 201 kts
2026-04-27 01:25 34.22995 -114.64496 6977 ft 201 kts
2026-04-27 01:25 34.24357 -114.64123 6978 ft 201 kts 10°
2026-04-27 01:25 34.25387 -114.63829 6975 ft 201 kts 10°
2026-04-27 01:26 34.26743 -114.63431 6977 ft 201 kts 11°
2026-04-27 01:26 34.28120 -114.63016 6977 ft 200 kts 11°
2026-04-27 01:26 34.29457 -114.62608 6980 ft 200 kts 11°
2026-04-27 01:26 34.30817 -114.62185 6983 ft 200 kts 11°
2026-04-27 01:27 34.32172 -114.61761 6982 ft 200 kts 12°
2026-04-27 01:27 34.33528 -114.61333 6982 ft 200 kts 12°
2026-04-27 01:27 34.34863 -114.60911 6981 ft 200 kts 12°
2026-04-27 01:27 34.36216 -114.60476 6980 ft 201 kts 12°
2026-04-27 01:28 34.37575 -114.60040 6978 ft 201 kts 12°
2026-04-27 01:28 34.38927 -114.59605 6975 ft 201 kts 12°
2026-04-27 01:28 34.40287 -114.59167 6975 ft 201 kts 12°
2026-04-27 01:28 34.41636 -114.58734 6973 ft 201 kts 12°
2026-04-27 01:29 34.42999 -114.58295 6975 ft 202 kts 12°
2026-04-27 01:29 34.44349 -114.57862 6975 ft 202 kts 12°
2026-04-27 01:29 34.45721 -114.57420 6972 ft 202 kts 12°
2026-04-27 01:29 34.47066 -114.56988 6970 ft 202 kts 12°
2026-04-27 01:30 34.48439 -114.56547 6975 ft 202 kts 12°
2026-04-27 01:30 34.49788 -114.56112 6975 ft 202 kts 12°
2026-04-27 01:30 34.51165 -114.55668 6972 ft 202 kts 12°
2026-04-27 01:30 34.52523 -114.55230 6929 ft 204 kts 12°
2026-04-27 01:31 34.53919 -114.54780 6762 ft 211 kts 12°
2026-04-27 01:31 34.55344 -114.54319 6605 ft 214 kts 12°
2026-04-27 01:31 34.56792 -114.53851 6454 ft 215 kts 13°
2026-04-27 01:31 34.58253 -114.53378 6305 ft 216 kts 12°
2026-04-27 01:32 34.59703 -114.52909 6161 ft 217 kts 12°
2026-04-27 01:32 34.61168 -114.52434 6019 ft 217 kts 12°
2026-04-27 01:32 34.62616 -114.51965 5964 ft 214 kts 12°
2026-04-27 01:32 34.64053 -114.51501 5972 ft 210 kts 12°
2026-04-27 01:33 34.65451 -114.51047 5974 ft 208 kts 12°
2026-04-27 01:33 34.66835 -114.50596 5974 ft 207 kts 12°
2026-04-27 01:33 34.68236 -114.50133 5971 ft 206 kts 13°
2026-04-27 01:33 34.69624 -114.49671 5970 ft 206 kts 12°
2026-04-27 01:34 34.70999 -114.49208 5971 ft 206 kts 13°
2026-04-27 01:34 34.72385 -114.48737 5972 ft 206 kts 13°
2026-04-27 01:34 34.73777 -114.48260 5971 ft 206 kts 13°
2026-04-27 01:34 34.75044 -114.47451 5976 ft 208 kts 37°
2026-04-27 01:35 34.76132 -114.46296 5975 ft 209 kts 40°
2026-04-27 01:35 34.77206 -114.45091 5967 ft 210 kts 48°
2026-04-27 01:35 34.77654 -114.43439 5922 ft 207 kts 94°
2026-04-27 01:35 34.77099 -114.41934 5797 ft 195 kts 138°
2026-04-27 01:36 34.76085 -114.40865 5613 ft 195 kts 127°
2026-04-27 01:36 34.75761 -114.39270 5430 ft 199 kts 90°
2026-04-27 01:36 34.75849 -114.37602 5281 ft 197 kts 88°
2026-04-27 01:36 34.75924 -114.35943 5130 ft 195 kts 89°
2026-04-27 01:37 34.75967 -114.34291 5043 ft 190 kts 91°
2026-04-27 01:37 34.75977 -114.32724 5072 ft 182 kts 92°
2026-04-27 01:37 34.75973 -114.31197 5068 ft 178 kts 92°
2026-04-27 01:37 34.76257 -114.29773 5069 ft 177 kts 57°
2026-04-27 01:38 34.77111 -114.28693 5074 ft 175 kts 43°
2026-04-27 01:38 34.78009 -114.27696 5073 ft 175 kts 43°
2026-04-27 01:38 34.78726 -114.26540 5071 ft 173 kts 75°
2026-04-27 01:38 34.78641 -114.25131 5080 ft 167 kts 118°
2026-04-27 01:39 34.77811 -114.24243 5085 ft 161 kts 163°
2026-04-27 01:39 34.76729 -114.24343 5085 ft 157 kts 208°
2026-04-27 01:39 34.76016 -114.25294 5082 ft 157 kts 250°
2026-04-27 01:39 34.75931 -114.26636 5023 ft 162 kts 270°
2026-04-27 01:40 34.75983 -114.28036 4858 ft 170 kts 271°
2026-04-27 01:40 34.76040 -114.29494 4705 ft 174 kts 270°
2026-04-27 01:40 34.76095 -114.30969 4528 ft 179 kts 270°
2026-04-27 01:40 34.76149 -114.32523 4279 ft 185 kts 270°
2026-04-27 01:41 34.76203 -114.34091 4041 ft 188 kts 270°
2026-04-27 01:41 34.76257 -114.35702 3806 ft 191 kts 270°
2026-04-27 01:41 34.76310 -114.37308 3662 ft 187 kts 270°
2026-04-27 01:41 34.76360 -114.38858 3686 ft 178 kts 270°
2026-04-27 01:42 34.76405 -114.40343 3688 ft 173 kts 270°
2026-04-27 01:42 34.76449 -114.41774 3687 ft 169 kts 269°
2026-04-27 01:42 34.76492 -114.43193 3684 ft 165 kts 269°
2026-04-27 01:42 34.76532 -114.44566 3679 ft 162 kts 269°
2026-04-27 01:43 34.76574 -114.45940 3675 ft 160 kts 270°
2026-04-27 01:43 34.76604 -114.47283 3670 ft 159 kts 269°
2026-04-27 01:43 34.76642 -114.48631 3670 ft 158 kts 269°
2026-04-27 01:43 34.76519 -114.49921 3665 ft 155 kts 243°
2026-04-27 01:44 34.76197 -114.51157 3670 ft 156 kts 271°
2026-04-27 01:44 34.76379 -114.52464 3676 ft 157 kts 275°
2026-04-27 01:44 34.76496 -114.53793 3561 ft 164 kts 274°
2026-04-27 01:44 34.76590 -114.55194 3417 ft 163 kts 272°
2026-04-27 01:45 34.76654 -114.56546 3184 ft 160 kts 269°
2026-04-27 01:45 34.76664 -114.57909 2892 ft 162 kts 268°
2026-04-27 01:45 34.76656 -114.59268 2612 ft 160 kts 266°
2026-04-27 01:45 34.76575 -114.60554 2364 ft 146 kts 260°
2026-04-27 01:46 34.76364 -114.61687 2246 ft 127 kts 257°
2026-04-27 01:46 34.76196 -114.62588 2195 ft 95 kts 256°
2026-04-27 01:46 34.76081 -114.63378 2052 ft 98 kts 264°
2026-04-27 01:46 34.76235 -114.64188 1904 ft 101 kts 296°
2026-04-27 01:47 34.76854 -114.64381 1726 ft 107 kts 37°
2026-04-27 01:47 34.76834 -114.63604 1212 ft 120 kts 128°
2026-04-27 01:47 34.76445 -114.62804 964 ft 86 kts 123°
2026-04-27 01:47 34.76263 -114.62404 947 ft 24 kts 114°
2026-04-27 01:48 34.76298 -114.62297 940 ft 15 kts 48°
2026-04-27 01:48 34.76340 -114.62142 927 ft 25 kts 112°
2026-04-27 01:48 34.76357 -114.62059 922 ft 4 kts 165°
2026-04-27 01:48 34.76382 -114.62058 921 ft 17 kts 243°
2026-04-27 01:49 34.76406 -114.62051 920 ft 29 kts